Time;durP1;ratioP1;P1;durP2;ratioP2;P2;SDS_P1;SDS_P2;PMS_P1;PMS_P2;Temp;Humidity;BMP_temperature;BMP_pressure;BME280_temperature;BME280_humidity;BME280_pressure;Samples;Min_cycle;Max_cycle;Signal;HPM_P1;HPM_P2
2023/05/13 00:02:21;;;;;;;3.07;2.30;;;8.50;92.80;;;8.39;80.56;98019.72;5076240;28;20435;-80
2023/05/13 00:04:48;;;;;;;2.63;2.20;;;8.50;93.20;;;8.26;81.09;98009.69;5079438;28;20644;-79
2023/05/13 00:07:15;;;;;;;3.80;3.40;;;8.50;93.20;;;8.35;80.68;98016.59;5068214;28;20536;-78
2023/05/13 00:09:42;;;;;;;3.17;2.70;;;8.50;93.30;;;8.37;80.52;98017.22;5090021;28;20655;-77
2023/05/13 00:12:11;;;;;;;4.10;3.50;;;8.50;93.30;;;8.36;80.70;98018.25;5074343;28;20457;-78
2023/05/13 00:14:38;;;;;;;2.77;2.50;;;8.50;93.40;;;8.39;80.50;98015.13;5075490;28;20448;-78
2023/05/13 00:17:05;;;;;;;2.83;2.50;;;8.50;93.60;;;8.43;80.74;98010.19;5088728;28;20468;-79
2023/05/13 00:19:33;;;;;;;2.70;2.50;;;8.50;93.20;;;8.35;81.07;98009.34;5079839;28;20468;-78
2023/05/13 00:22:00;;;;;;;2.53;2.23;;;8.50;93.30;;;7.83;81.06;97924.66;5067528;28;20505;-78
2023/05/13 00:24:27;;;;;;;3.07;2.80;;;8.40;93.70;;;8.36;80.63;98005.63;5076064;28;20462;-77
2023/05/13 00:26:54;;;;;;;2.73;2.30;;;8.40;93.70;;;8.36;80.72;98004.78;5068377;28;20461;-78
2023/05/13 00:29:24;;;;;;;2.40;2.20;;;8.50;93.50;;;7.76;80.74;97908.50;5092451;28;20456;-78
2023/05/13 00:31:51;;;;;;;3.03;2.63;;;8.40;93.50;;;8.28;81.06;97997.72;5088158;28;20471;-77
2023/05/13 00:34:18;;;;;;;2.70;2.50;;;8.40;93.50;;;8.29;80.83;97993.16;5081003;28;20447;-78
2023/05/13 00:36:46;;;;;;;3.23;2.73;;;8.40;94.10;;;8.17;81.78;97985.66;5085403;28;20460;-78
2023/05/13 00:39:13;;;;;;;3.03;2.73;;;8.30;94.30;;;8.18;81.73;98013.41;5086960;28;21157;-79
2023/05/13 00:41:41;;;;;;;2.77;2.57;;;8.20;94.10;;;8.08;82.24;98003.84;5054231;28;20462;-79
2023/05/13 00:44:08;;;;;;;3.50;2.97;;;8.20;94.70;;;8.09;82.60;98010.03;5089712;28;20472;-78
2023/05/13 00:46:37;;;;;;;3.27;2.97;;;8.10;95.10;;;7.92;82.30;97994.22;5070851;28;20479;-80
2023/05/13 00:49:06;;;;;;;4.87;3.10;;;8.10;95.20;;;7.93;82.52;98011.22;5088219;28;20446;-80
2023/05/13 00:51:33;;;;;;;3.67;3.37;;;8.00;95.70;;;7.37;83.08;97935.81;5069560;28;20940;-78
2023/05/13 00:54:00;;;;;;;3.30;3.00;;;7.90;96.00;;;7.63;83.18;97982.69;5071523;28;20451;-78
2023/05/13 00:56:28;;;;;;;3.87;3.50;;;7.80;97.00;;;7.70;83.93;98016.88;5087112;28;20452;-77
2023/05/13 00:58:55;;;;;;;4.03;3.63;;;7.70;97.40;;;7.55;83.78;97985.53;5093851;28;20454;-78
2023/05/13 01:01:31;;;;;;;4.13;3.60;;;7.70;98.50;;;7.70;83.83;98024.94;5088697;28;20468;-79
2023/05/13 01:04:17;;;;;;;4.50;3.50;;;7.70;98.40;;;7.70;84.41;98024.94;5089427;28;20462;-79
2023/05/13 01:06:54;;;;;;;4.90;3.37;;;7.70;98.80;;;7.69;83.97;98005.28;5068213;28;20613;-78
2023/05/13 01:09:33;;;;;;;4.03;3.67;;;7.70;99.20;;;7.77;83.97;98033.88;5087608;28;20511;-76
2023/05/13 01:12:22;;;;;;;5.83;3.80;;;7.80;98.20;;;7.78;83.70;98025.63;5060592;28;20455;-78
2023/05/13 01:14:57;;;;;;;3.63;3.30;;;7.80;98.00;;;7.75;84.11;98022.47;5092876;28;20459;-78
2023/05/13 01:17:30;;;;;;;3.03;2.70;;;7.80;97.50;;;7.70;84.27;98014.19;5078621;28;20438;-78
2023/05/13 01:20:03;;;;;;;5.77;4.00;;;7.90;98.20;;;7.57;84.35;98015.75;5069617;28;20461;-77
2023/05/13 01:22:32;;;;;;;5.37;4.50;;;7.80;97.50;;;7.69;84.72;98020.59;5064822;28;20447;-77
2023/05/13 01:24:59;;;;;;;6.20;3.30;;;7.80;97.90;;;7.65;84.28;98015.59;5091398;28;20477;-77
2023/05/13 01:27:27;;;;;;;3.87;3.47;;;7.80;97.70;;;7.69;84.28;98031.34;5068568;28;20488;-77
2023/05/13 01:29:55;;;;;;;9.80;3.87;;;7.80;98.20;;;7.45;85.09;98007.41;5088356;28;20478;-77
2023/05/13 01:32:23;;;;;;;5.27;3.70;;;7.70;97.90;;;7.57;85.19;98029.19;5084761;28;20488;-77
2023/05/13 01:34:52;;;;;;;4.73;3.30;;;7.70;98.60;;;7.51;85.07;98030.81;5084514;28;20489;-78
2023/05/13 01:37:20;;;;;;;3.90;3.50;;;7.60;99.40;;;7.43;85.94;98035.50;5087072;28;21135;-74
2023/05/13 01:39:49;;;;;;;4.70;3.77;;;7.50;99.90;;;7.30;86.43;98020.91;5073584;28;20474;-78
2023/05/13 01:42:16;;;;;;;4.30;3.90;;;7.40;99.90;;;7.18;86.76;98012.56;5089580;28;20455;-77
2023/05/13 01:44:44;;;;;;;4.03;3.70;;;7.40;99.90;;;7.32;86.57;98016.19;5069679;28;20525;-76
2023/05/13 01:47:11;;;;;;;5.10;3.93;;;7.40;99.90;;;7.22;86.76;98010.31;5065064;28;20438;-76
2023/05/13 01:49:38;;;;;;;4.63;3.17;;;7.40;99.90;;;7.43;86.42;98020.22;5081641;28;20456;-77
2023/05/13 01:52:06;;;;;;;4.03;3.63;;;7.40;99.90;;;7.50;86.43;98029.16;5072319;28;20962;-77
2023/05/13 01:54:33;;;;;;;8.33;4.10;;;7.50;99.90;;;7.47;86.57;98021.47;5068866;28;20451;-79
2023/05/13 01:57:03;;;;;;;5.20;3.60;;;7.50;99.90;;;7.46;86.44;98018.97;5061784;28;21017;-78
2023/05/13 01:59:30;;;;;;;3.93;3.53;;;7.50;99.90;;;7.48;86.44;98024.97;5069774;28;20443;-78
2023/05/13 02:01:57;;;;;;;7.60;3.80;;;7.50;99.90;;;7.45;86.47;98025.38;5072278;28;20454;-78
2023/05/13 02:04:26;;;;;;;4.33;3.27;;;7.50;99.90;;;7.52;86.32;98037.03;5063943;28;20458;-79
2023/05/13 02:06:53;;;;;;;4.53;3.90;;;7.50;99.90;;;7.54;86.11;98028.75;5073988;28;20454;-76
2023/05/13 02:09:20;;;;;;;5.03;3.77;;;7.50;99.90;;;7.42;86.59;98021.22;5065986;28;20449;-78
2023/05/13 02:11:47;;;;;;;6.30;4.00;;;7.50;99.90;;;7.47;87.21;98026.00;5080510;28;20460;-79
2023/05/13 02:14:16;;;;;;;4.43;3.93;;;7.50;99.90;;;7.57;86.64;98029.19;5100074;28;20461;-78
2023/05/13 02:16:43;;;;;;;5.63;4.10;;;7.50;99.90;;;7.70;86.49;98027.63;5068945;28;20451;-78
2023/05/13 02:19:11;;;;;;;5.73;4.53;;;7.60;99.90;;;7.30;86.28;97959.09;5086434;28;20504;-78
2023/05/13 02:21:38;;;;;;;6.63;3.70;;;7.70;99.90;;;7.70;85.58;98006.94;5065431;28;20917;-80
2023/05/13 02:24:06;;;;;;;6.63;3.50;;;7.80;99.90;;;7.55;85.31;97990.06;5096333;28;20537;-78
2023/05/13 02:26:33;;;;;;;4.00;3.40;;;7.80;99.90;;;7.75;85.29;98025.19;5083885;28;20513;-79
2023/05/13 02:29:01;;;;;;;3.90;3.50;;;7.80;99.90;;;7.93;84.31;98028.19;5088879;28;20462;-78
2023/05/13 02:31:29;;;;;;;8.53;5.03;;;7.90;99.30;;;8.06;83.44;98029.28;5091178;28;20454;-79
2023/05/13 02:33:57;;;;;;;4.27;3.00;;;8.00;97.60;;;8.03;83.42;98024.31;5096768;28;20543;-80
2023/05/13 02:36:24;;;;;;;5.40;4.17;;;8.20;96.40;;;8.18;82.79;98027.69;5098214;28;20746;-78
2023/05/13 02:38:51;;;;;;;3.77;3.33;;;8.20;95.30;;;8.14;82.40;98034.50;5082032;28;21010;-76
2023/05/13 02:41:19;;;;;;;4.90;3.40;;;8.30;94.90;;;8.09;82.53;98018.13;5077359;28;20444;-76
2023/05/13 02:43:46;;;;;;;3.90;3.50;;;8.30;94.10;;;8.10;81.92;98011.69;5069551;28;20980;-78
2023/05/13 02:46:13;;;;;;;5.90;4.23;;;8.40;94.10;;;8.13;82.05;98007.78;5070921;28;20560;-77
2023/05/13 02:48:42;;;;;;;4.63;2.93;;;8.40;94.00;;;8.12;82.34;98023.13;5083144;28;20452;-78
2023/05/13 02:51:09;;;;;;;4.70;3.50;;;8.30;93.80;;;8.21;81.80;98031.84;5067407;28;20506;-78
2023/05/13 02:53:36;;;;;;;3.83;3.43;;;8.30;94.10;;;8.27;81.84;98024.84;5063015;28;20465;-78
2023/05/13 02:56:04;;;;;;;3.97;3.53;;;8.40;93.40;;;8.21;81.17;98026.47;5078403;28;20453;-77
2023/05/13 02:58:31;;;;;;;5.30;3.87;;;8.50;93.10;;;8.17;80.85;98017.97;5049820;28;20958;-79
2023/05/13 03:00:58;;;;;;;3.53;2.63;;;8.50;92.80;;;8.29;80.96;98030.84;5079092;28;20463;-78
2023/05/13 03:03:26;;;;;;;3.73;3.30;;;8.50;93.00;;;8.38;80.64;98034.22;5085787;28;20457;-78
2023/05/13 03:05:55;;;;;;;3.90;3.23;;;8.50;92.70;;;8.36;80.91;98037.09;5079109;28;20468;-78
2023/05/13 03:08:22;;;;;;;4.40;3.60;;;8.50;92.80;;;8.37;81.32;98036.06;5067320;28;20445;-79
2023/05/13 03:10:51;;;;;;;3.93;3.30;;;8.50;92.90;;;8.38;80.60;98035.03;5085540;28;20455;-77
2023/05/13 03:13:18;;;;;;;3.50;3.20;;;8.50;93.10;;;8.41;80.59;98033.81;5070536;28;20528;-78
2023/05/13 03:15:46;;;;;;;3.57;3.27;;;8.50;93.20;;;8.37;82.02;98044.13;5082096;28;20815;-80
2023/05/13 03:18:13;;;;;;;5.00;3.87;;;8.40;94.00;;;8.27;82.70;98038.31;5066412;28;20961;-78
2023/05/13 03:20:40;;;;;;;3.93;3.53;;;8.30;94.50;;;8.29;82.04;98036.25;5083914;28;20455;-80
2023/05/13 03:23:09;;;;;;;3.80;3.47;;;8.40;94.20;;;8.35;81.45;98038.97;5087445;28;20443;-78
2023/05/13 03:25:36;;;;;;;3.80;3.50;;;8.40;94.40;;;7.84;81.25;97953.22;5091296;28;20478;-79
2023/05/13 03:28:04;;;;;;;4.10;3.70;;;8.50;93.60;;;8.37;80.99;98019.91;5076563;28;21005;-78
2023/05/13 03:30:32;;;;;;;4.27;3.87;;;8.50;93.90;;;8.38;81.40;98035.03;5096506;28;20460;-79
2023/05/13 03:32:59;;;;;;;5.03;4.17;;;8.60;93.70;;;8.54;81.32;98033.88;5090341;28;20467;-80
2023/05/13 03:35:26;;;;;;;4.63;3.17;;;8.70;93.30;;;8.61;80.83;98042.00;5088494;28;20446;-80
2023/05/13 03:37:53;;;;;;;3.57;3.20;;;8.70;93.10;;;8.54;81.67;98031.19;5088198;28;20549;-79
2023/05/13 03:40:22;;;;;;;4.10;3.40;;;8.70;93.20;;;8.62;79.82;98024.78;5090327;28;20459;-81
2023/05/13 03:42:49;;;;;;;3.50;3.20;;;8.80;93.00;;;8.27;80.15;97966.44;5081369;28;21052;-78
2023/05/13 03:45:17;;;;;;;3.97;3.57;;;8.80;92.80;;;8.69;81.36;98044.47;5068964;28;20486;-78
2023/05/13 03:47:44;;;;;;;3.83;3.40;;;8.80;93.10;;;8.28;81.16;97991.50;5089108;28;20457;-78
2023/05/13 03:50:11;;;;;;;3.20;2.90;;;8.80;93.00;;;8.74;81.17;98038.50;5069811;28;20460;-79
2023/05/13 03:52:38;;;;;;;3.87;3.47;;;8.80;93.40;;;8.69;80.49;98036.41;5088360;28;20446;-79
2023/05/13 03:55:06;;;;;;;3.00;2.70;;;8.90;92.90;;;8.70;80.73;98040.75;5069207;28;20449;-77
2023/05/13 03:57:35;;;;;;;6.07;3.83;;;8.90;92.90;;;8.81;80.29;98049.28;5088354;28;20436;-79
2023/05/13 04:00:02;;;;;;;3.97;3.60;;;8.90;92.80;;;8.72;80.08;98037.88;5089314;28;20450;-79
2023/05/13 04:02:30;;;;;;;3.43;3.13;;;8.90;92.70;;;8.84;79.98;98038.94;5089151;28;20457;-79
2023/05/13 04:04:58;;;;;;;12.13;4.30;;;8.90;92.80;;;9.01;79.56;98066.31;5088895;28;20556;-79
2023/05/13 04:07:26;;;;;;;3.73;3.40;;;9.10;92.10;;;8.92;79.50;98059.47;5079811;28;20464;-79
2023/05/13 04:09:53;;;;;;;4.93;3.57;;;9.10;91.90;;;8.99;79.47;98060.31;5067720;28;20461;-78
2023/05/13 04:12:20;;;;;;;3.80;3.07;;;9.10;92.00;;;9.09;79.28;98053.72;5063791;28;20438;-80
2023/05/13 04:14:49;;;;;;;4.97;4.20;;;9.10;92.40;;;9.17;79.02;98058.88;5090680;28;20548;-78
2023/05/13 04:17:16;;;;;;;4.33;3.83;;;9.30;91.80;;;9.02;78.29;98024.91;5067436;28;20456;-77
2023/05/13 04:19:44;;;;;;;3.73;3.40;;;9.30;91.60;;;9.31;78.67;98060.56;5089684;28;21011;-79
2023/05/13 04:22:11;;;;;;;4.43;3.70;;;9.40;91.90;;;9.61;77.10;98060.16;5089876;28;21254;-77
2023/05/13 04:24:38;;;;;;;3.47;3.20;;;9.60;91.20;;;9.57;77.58;98064.31;5089790;28;20496;-80
2023/05/13 04:27:06;;;;;;;4.57;3.93;;;9.70;90.40;;;9.43;76.93;98019.50;5070947;28;20471;-81
2023/05/13 04:29:33;;;;;;;3.90;3.60;;;9.80;90.30;;;9.72;77.03;98063.28;5086976;28;20483;-79
2023/05/13 04:32:02;;;;;;;5.03;3.30;;;9.80;90.10;;;9.60;76.76;98044.19;5092199;28;20513;-79
2023/05/13 04:34:29;;;;;;;4.20;3.80;;;9.80;90.10;;;9.85;76.52;98062.41;5088980;28;20490;-81
2023/05/13 04:36:57;;;;;;;4.83;3.97;;;9.90;89.90;;;9.84;75.41;98050.81;5053761;28;20448;-80
2023/05/13 04:39:24;;;;;;;6.40;4.33;;;10.00;88.70;;;9.38;76.03;97971.59;5076639;28;20546;-79
2023/05/13 04:41:51;;;;;;;3.90;3.40;;;10.10;88.70;;;9.79;75.23;98012.84;5086162;28;20466;-79
2023/05/13 04:44:20;;;;;;;3.93;3.40;;;10.20;88.10;;;10.04;75.03;98047.22;5090743;28;20456;-80
2023/05/13 04:46:49;;;;;;;3.83;3.20;;;10.30;87.00;;;10.18;75.29;98075.84;5097324;28;20574;-78
2023/05/13 04:49:18;;;;;;;3.67;3.20;;;10.30;86.60;;;9.60;74.91;97990.25;5084803;28;20450;-79
2023/05/13 04:51:45;;;;;;;4.53;3.00;;;10.40;86.10;;;10.25;74.64;98080.44;5072137;28;20455;-79
2023/05/13 04:54:12;;;;;;;4.00;3.33;;;10.40;86.00;;;10.00;74.39;98021.72;5072567;28;20465;-79
2023/05/13 04:56:40;;;;;;;4.80;3.30;;;10.50;86.50;;;10.29;74.56;98082.47;5071598;28;20447;-77
2023/05/13 04:59:08;;;;;;;3.57;2.70;;;10.50;85.80;;;10.33;74.05;98072.94;5065056;28;20540;-79
2023/05/13 05:01:37;;;;;;;3.60;3.07;;;10.60;85.70;;;10.40;74.14;98070.22;5082732;28;20969;-78
2023/05/13 05:04:07;;;;;;;3.40;3.03;;;10.60;85.60;;;10.24;73.34;98024.78;5080665;28;20503;-77
2023/05/13 05:06:36;;;;;;;3.97;3.43;;;10.70;85.70;;;10.73;73.15;98082.78;5076117;28;20476;-74
2023/05/13 05:09:04;;;;;;;3.90;3.43;;;10.80;85.40;;;10.77;72.86;98067.78;5075939;28;20605;-73
2023/05/13 05:11:31;;;;;;;4.80;3.60;;;10.90;85.40;;;10.97;71.61;98074.94;5077807;28;20452;-75
2023/05/13 05:13:59;;;;;;;3.30;3.00;;;11.10;84.40;;;10.91;72.75;98075.81;5086795;28;21080;-74
2023/05/13 05:16:26;;;;;;;3.23;2.93;;;11.10;84.50;;;11.05;72.07;98079.28;5071439;28;20456;-74
2023/05/13 05:18:53;;;;;;;4.00;3.60;;;11.10;84.30;;;11.32;70.76;98074.53;5085591;28;20859;-73
2023/05/13 05:21:21;;;;;;;3.43;3.13;;;11.40;83.80;;;11.08;71.27;98078.84;5084325;28;20933;-74
2023/05/13 05:23:50;;;;;;;4.30;3.10;;;11.40;83.20;;;11.11;70.85;98080.28;5085682;28;20456;-76
2023/05/13 05:26:17;;;;;;;3.43;3.13;;;11.40;83.30;;;11.18;71.20;98083.78;5081728;28;20561;-72
2023/05/13 05:28:46;;;;;;;3.50;3.20;;;11.40;83.20;;;11.28;71.38;98084.13;5064380;28;20715;-72
2023/05/13 05:31:13;;;;;;;2.93;2.67;;;11.40;83.40;;;11.17;71.19;98093.75;5081227;28;20470;-72
2023/05/13 05:33:41;;;;;;;3.53;3.23;;;11.40;82.90;;;11.08;71.64;98088.84;5084958;28;20452;-74
2023/05/13 05:36:09;;;;;;;3.97;3.67;;;11.40;83.10;;;11.33;70.91;98089.72;5070904;28;20455;-71
2023/05/13 05:38:36;;;;;;;3.80;3.13;;;11.50;83.30;;;11.27;71.12;98093.28;5080127;28;21157;-84
2023/05/13 05:41:07;;;;;;;2.97;2.60;;;11.50;83.20;;;11.35;70.59;98103.00;5090295;28;20454;-73
2023/05/13 05:43:36;;;;;;;3.83;3.37;;;11.50;82.90;;;11.17;70.29;98103.75;5067828;28;20448;-71
2023/05/13 05:46:04;;;;;;;3.73;3.13;;;11.50;82.30;;;11.38;69.99;98102.59;5064272;28;20659;-72
2023/05/13 05:48:31;;;;;;;4.00;3.70;;;11.60;82.70;;;11.55;69.57;98111.00;5058426;28;20446;-72
2023/05/13 05:50:59;;;;;;;3.10;2.80;;;11.70;82.40;;;11.61;69.36;98099.31;5080105;28;20456;-72
2023/05/13 05:53:26;;;;;;;3.97;3.13;;;11.80;82.20;;;11.56;69.50;98107.22;5079991;28;20477;-72
2023/05/13 05:56:01;;;;;;;3.53;3.23;;;11.80;82.10;;;11.21;69.35;98034.66;5058885;28;20457;-71
2023/05/13 05:58:31;;;;;;;3.10;2.87;;;11.90;82.10;;;11.82;68.68;98110.78;5080879;28;20452;-73
2023/05/13 06:00:59;;;;;;;3.33;2.90;;;11.90;81.80;;;12.12;68.82;98106.56;5058775;28;20484;-71
2023/05/13 06:03:26;;;;;;;3.70;3.40;;;12.10;82.30;;;12.10;67.51;98098.69;5065567;28;20441;-72
2023/05/13 06:05:54;;;;;;;3.40;3.10;;;12.30;81.20;;;12.13;67.84;98108.22;5086670;28;20477;-73
2023/05/13 06:08:28;;;;;;;4.30;3.43;;;12.30;81.30;;;12.12;67.43;98110.13;5060309;28;20500;-71
2023/05/13 06:10:56;;;;;;;3.67;3.37;;;12.30;81.00;;;12.28;67.41;98116.03;5059273;28;20455;-72
2023/05/13 06:13:23;;;;;;;3.80;3.50;;;12.40;81.10;;;12.28;67.07;98102.47;5078488;28;20810;-71
2023/05/13 06:15:52;;;;;;;3.37;3.07;;;12.40;80.80;;;12.45;66.50;98119.78;5078627;28;20496;-72
2023/05/13 06:18:19;;;;;;;6.83;3.57;;;12.50;80.60;;;12.52;66.97;98114.31;5077309;28;20481;-71
2023/05/13 06:20:47;;;;;;;3.27;2.97;;;12.60;80.80;;;12.34;67.19;98115.09;5074300;28;20501;-70
2023/05/13 06:23:14;;;;;;;3.67;3.37;;;12.50;80.50;;;12.43;66.39;98105.66;5079951;28;20453;-72
2023/05/13 06:25:42;;;;;;;4.53;2.93;;;12.60;80.50;;;12.57;65.59;98116.34;5078576;28;20453;-72
2023/05/13 06:28:10;;;;;;;3.57;3.07;;;12.70;80.00;;;12.75;65.42;98110.09;5072659;28;20523;-71
2023/05/13 06:30:38;;;;;;;3.30;3.00;;;12.80;80.00;;;12.55;65.03;98107.59;5075245;28;20474;-71
2023/05/13 06:33:09;;;;;;;3.90;3.53;;;12.80;79.40;;;12.54;65.84;98100.53;5067724;28;20439;-73
2023/05/13 06:35:37;;;;;;;8.27;3.20;;;12.70;79.60;;;12.79;65.95;98103.16;5077064;28;20461;-71
2023/05/13 06:38:04;;;;;;;3.13;2.83;;;12.80;80.20;;;12.60;65.45;98113.16;5075493;28;20550;-72
2023/05/13 06:40:32;;;;;;;3.47;3.00;;;12.80;79.50;;;12.59;65.96;98112.34;5081541;28;20545;-72
2023/05/13 06:42:59;;;;;;;3.73;3.10;;;12.80;79.90;;;12.59;65.70;98111.50;5068123;28;20775;-71
2023/05/13 06:45:26;;;;;;;3.70;3.40;;;12.80;79.50;;;12.49;66.21;98109.34;5063049;28;20442;-72
2023/05/13 06:47:54;;;;;;;3.60;3.30;;;12.80;79.50;;;12.49;66.07;98116.63;5081738;28;20482;-71
2023/05/13 06:50:22;;;;;;;3.70;3.40;;;12.70;79.40;;;12.81;66.20;98105.63;5075646;28;20532;-73
2023/05/13 06:52:50;;;;;;;4.90;3.10;;;12.90;80.10;;;13.12;64.75;98111.91;5076801;28;20948;-72
2023/05/13 06:55:17;;;;;;;3.37;3.07;;;13.10;79.40;;;12.99;64.33;98119.16;5060175;28;22332;-70
2023/05/13 06:57:45;;;;;;;2.50;2.30;;;13.10;78.70;;;12.79;64.52;98118.56;5077265;28;20463;-72
2023/05/13 07:00:13;;;;;;;3.33;3.03;;;13.10;78.60;;;12.88;65.55;98119.94;5059986;28;20447;-76
2023/05/13 07:02:41;;;;;;;3.23;2.70;;;13.00;79.30;;;12.92;64.84;98113.00;5075826;28;20448;-71
2023/05/13 07:05:09;;;;;;;3.83;3.47;;;13.10;78.70;;;13.06;64.66;98113.66;5089614;28;20522;-73
2023/05/13 07:07:37;;;;;;;3.13;2.93;;;13.20;78.90;;;12.92;64.30;98118.41;5059478;28;20934;-74
2023/05/13 07:10:06;;;;;;;3.73;3.20;;;13.20;78.30;;;13.06;64.67;98112.81;5075447;28;20512;-73
2023/05/13 07:12:33;;;;;;;3.13;2.87;;;13.20;78.80;;;13.10;64.30;98111.28;5061697;28;21003;-72
2023/05/13 07:15:00;;;;;;;3.70;3.40;;;13.30;78.70;;;13.02;64.29;98118.72;5059504;28;20456;-73
2023/05/13 07:17:30;;;;;;;3.30;3.00;;;13.30;78.50;;;13.10;64.71;98124.84;5083303;28;20453;-72
2023/05/13 07:19:58;;;;;;;3.37;3.10;;;13.30;78.70;;;13.23;64.62;98113.00;5081770;28;20473;-72
2023/05/13 07:22:26;;;;;;;3.30;3.00;;;13.40;78.70;;;12.93;64.61;98117.34;5079211;28;22439;-71
2023/05/13 07:24:54;;;;;;;3.37;3.07;;;13.30;78.10;;;13.14;64.34;98126.06;5076189;28;20456;-73
2023/05/13 07:27:22;;;;;;;2.97;2.77;;;13.30;78.40;;;12.82;64.97;98127.09;5079987;28;20831;-68
2023/05/13 07:29:49;;;;;;;3.40;3.10;;;13.20;78.70;;;12.91;64.69;98111.34;5057593;28;21097;-71
2023/05/13 07:32:16;;;;;;;3.50;3.10;;;13.10;78.50;;;12.93;65.08;98122.78;5079985;28;20658;-72
2023/05/13 07:34:44;;;;;;;3.60;3.23;;;13.10;78.70;;;12.98;64.57;98125.66;5063332;28;20878;-71
2023/05/13 07:37:11;;;;;;;3.00;2.80;;;13.20;78.50;;;12.70;65.58;98129.75;5082196;28;20533;-72
2023/05/13 07:39:38;;;;;;;4.10;2.93;;;13.10;78.70;;;13.10;65.05;98119.44;5081841;28;20830;-70
2023/05/13 07:42:07;;;;;;;4.40;3.37;;;13.20;79.10;;;13.08;64.36;98121.53;5079894;28;20453;-72
2023/05/13 07:44:34;;;;;;;3.10;2.90;;;13.30;78.40;;;13.37;64.26;98129.91;5077519;28;20443;-71
2023/05/13 07:47:02;;;;;;;3.50;2.97;;;13.40;79.00;;;13.36;64.18;98133.69;5082526;28;21098;-70
2023/05/13 07:49:29;;;;;;;2.83;2.63;;;13.50;78.40;;;13.35;64.40;98132.88;5084549;28;20544;-70
2023/05/13 07:51:56;;;;;;;4.27;2.50;;;13.50;78.60;;;13.51;63.49;98119.75;5080475;28;20470;-69
2023/05/13 07:54:24;;;;;;;3.17;2.57;;;13.60;78.10;;;13.50;63.66;98135.19;5082085;28;20541;-72
2023/05/13 07:56:51;;;;;;;4.47;3.37;;;13.60;78.20;;;13.55;63.54;98132.59;5083270;28;20645;-71
2023/05/13 07:59:19;;;;;;;3.67;2.90;;;13.70;78.00;;;13.98;63.53;98132.56;5079816;28;20469;-69
2023/05/13 08:01:47;;;;;;;2.67;2.47;;;13.80;78.70;;;13.47;62.92;98141.09;5063618;28;20454;-71
2023/05/13 08:04:14;;;;;;;3.17;2.53;;;13.80;77.40;;;13.20;64.07;98140.59;5082654;28;20858;-70
2023/05/13 08:06:41;;;;;;;4.70;2.93;;;13.60;77.40;;;13.26;63.92;98135.06;5064202;28;21191;-70
2023/05/13 08:09:11;;;;;;;3.13;2.83;;;13.50;77.90;;;13.53;63.56;98128.47;5084539;28;20538;-70
2023/05/13 08:11:38;;;;;;;3.83;2.87;;;13.70;78.10;;;13.69;63.03;98125.09;5066218;28;20540;-71
2023/05/13 08:14:06;;;;;;;3.20;2.90;;;13.80;77.80;;;13.86;62.59;98122.50;5084649;28;20461;-70
2023/05/13 08:16:36;;;;;;;2.67;2.47;;;14.00;77.60;;;13.65;62.35;98128.50;5066187;28;20478;-71
2023/05/13 08:19:04;;;;;;;2.90;2.60;;;14.00;76.60;;;13.56;62.83;98134.25;5087350;28;20901;-71
2023/05/13 08:21:31;;;;;;;4.50;2.93;;;13.90;77.10;;;14.03;61.60;98138.94;5086088;28;20439;-71
2023/05/13 08:23:58;;;;;;;2.80;2.50;;;14.10;77.00;;;14.31;61.01;98139.28;5085992;28;20476;-72
2023/05/13 08:26:26;;;;;;;2.40;2.20;;;14.30;76.80;;;14.23;60.45;98126.06;5064861;28;20461;-70
2023/05/13 08:28:53;;;;;;;3.33;3.03;;;14.40;76.10;;;13.85;61.92;98120.84;5084841;28;20462;-71
2023/05/13 08:31:20;;;;;;;2.67;2.47;;;14.20;76.30;;;13.96;62.14;98137.41;5064671;28;20470;-70
2023/05/13 08:33:49;;;;;;;2.60;2.40;;;14.10;76.70;;;14.05;62.17;98130.56;5088106;28;20905;-71
2023/05/13 08:36:16;;;;;;;2.87;2.67;;;14.20;77.00;;;14.01;62.09;98134.78;5084000;28;20863;-70
2023/05/13 08:38:43;;;;;;;2.30;2.10;;;14.20;76.80;;;14.01;61.79;98134.78;5087671;28;20981;-68
2023/05/13 08:41:13;;;;;;;2.57;2.40;;;14.20;76.60;;;13.85;61.47;98131.72;5086623;28;20528;-70
2023/05/13 08:43:42;;;;;;;3.10;2.73;;;14.10;75.80;;;13.87;61.42;98135.00;5078187;28;20479;-70
2023/05/13 08:46:11;;;;;;;2.50;2.30;;;14.10;76.10;;;13.77;62.18;98128.50;5066615;28;20458;-69
2023/05/13 08:48:39;;;;;;;2.83;2.40;;;14.00;76.10;;;13.60;62.33;98135.47;5072344;28;20482;-70
2023/05/13 08:51:08;;;;;;;2.50;2.30;;;13.90;76.10;;;13.47;63.15;98132.94;5078992;28;20532;-69
2023/05/13 08:53:38;;;;;;;3.27;2.80;;;13.80;76.50;;;13.82;61.92;98136.81;5092595;28;20487;-69
2023/05/13 08:56:08;;;;;;;3.07;2.80;;;13.90;76.30;;;14.01;62.02;98140.22;5081712;28;20451;-68
2023/05/13 08:58:35;;;;;;;2.60;2.30;;;14.10;76.70;;;14.29;61.08;98136.00;5065217;28;20448;-69
2023/05/13 09:01:03;;;;;;;2.67;2.47;;;14.30;76.00;;;14.83;60.37;98129.56;5082806;28;20479;-67
2023/05/13 09:03:32;;;;;;;2.50;2.30;;;14.70;76.10;;;15.42;58.25;98136.69;5088931;28;20947;-70
2023/05/13 09:06:00;;;;;;;2.70;2.30;;;15.10;75.60;;;15.17;57.55;98134.31;5090390;28;20470;-69
2023/05/13 09:08:31;;;;;;;2.30;2.10;;;15.30;73.40;;;14.98;58.29;98132.59;5086752;28;20515;-70
2023/05/13 09:10:58;;;;;;;2.27;2.10;;;15.30;73.10;;;15.28;57.47;98137.00;5067905;28;20458;-71
2023/05/13 09:13:25;;;;;;;2.80;2.60;;;15.40;73.40;;;14.98;58.51;98142.66;5086499;28;20608;-71
2023/05/13 09:15:53;;;;;;;2.63;2.43;;;15.40;73.30;;;15.49;57.25;98140.09;5083439;28;20509;-71
2023/05/13 09:18:21;;;;;;;2.90;2.60;;;15.60;72.80;;;15.49;57.43;98137.34;5085783;28;20751;-71
2023/05/13 09:20:48;;;;;;;2.73;2.53;;;15.70;72.70;;;15.11;57.43;98141.56;5072195;28;20446;-68
2023/05/13 09:23:15;;;;;;;2.53;2.33;;;15.50;72.10;;;14.51;59.23;98144.38;5090015;28;20569;-69
2023/05/13 09:25:44;;;;;;;2.37;2.17;;;15.00;72.60;;;14.44;59.85;98139.06;5087390;28;20446;-69
2023/05/13 09:28:15;;;;;;;2.63;2.43;;;14.70;73.50;;;14.46;59.88;98130.66;5067131;28;20489;-70
2023/05/13 09:30:43;;;;;;;2.83;2.53;;;14.70;73.70;;;14.70;59.29;98134.19;5067582;28;20471;-71
2023/05/13 09:33:13;;;;;;;2.63;2.43;;;14.70;74.10;;;14.71;58.14;98140.47;5085810;28;21071;-70
2023/05/13 09:35:42;;;;;;;3.17;2.83;;;14.90;72.90;;;14.62;58.95;98134.53;5094075;28;20451;-70
2023/05/13 09:38:14;;;;;;;3.07;2.77;;;14.90;73.10;;;14.71;59.87;98144.03;5084895;28;20451;-69
2023/05/13 09:40:42;;;;;;;2.43;2.00;;;14.90;74.10;;;14.52;60.02;98137.06;5068949;28;20955;-70
2023/05/13 09:43:11;;;;;;;2.77;2.57;;;14.80;73.40;;;14.66;60.35;98148.50;5069681;28;20531;-69
2023/05/13 09:45:39;;;;;;;2.30;2.20;;;14.70;74.20;;;15.05;59.16;98148.78;5065390;28;20448;-68
2023/05/13 09:48:08;;;;;;;2.53;2.33;;;14.90;74.20;;;14.88;58.78;98086.16;5083139;28;20470;-69
2023/05/13 09:50:35;;;;;;;2.50;2.30;;;15.20;74.50;;;15.24;58.53;98148.59;5070686;28;20449;-71
2023/05/13 09:53:11;;;;;;;2.23;2.03;;;15.30;73.40;;;15.36;57.74;98141.22;5067102;28;20452;-70
2023/05/13 09:55:38;;;;;;;2.40;2.20;;;15.40;72.80;;;15.30;57.83;98145.75;5082462;28;20450;-70
2023/05/13 09:58:11;;;;;;;2.93;1.97;;;15.50;72.50;;;15.53;58.22;98135.78;5076926;28;20458;-69
2023/05/13 10:00:41;;;;;;;2.23;1.93;;;15.60;73.00;;;15.10;56.87;98077.31;5065928;28;20516;-69
2023/05/13 10:03:09;;;;;;;2.27;2.10;;;15.60;71.80;;;15.14;57.17;98144.59;5084436;28;20461;-71
2023/05/13 10:05:37;;;;;;;1.83;1.73;;;15.40;71.50;;;15.15;58.25;98140.00;5078268;28;20475;-70
2023/05/13 10:08:08;;;;;;;5.40;2.30;;;15.40;72.80;;;15.13;57.94;98150.31;5087444;28;20475;-69
2023/05/13 10:10:36;;;;;;;2.30;2.10;;;15.30;72.10;;;14.69;59.28;98151.56;5080085;28;20452;-71
2023/05/13 10:13:06;;;;;;;2.07;1.97;;;15.10;72.70;;;14.14;60.28;98148.16;5068098;28;20456;-72
2023/05/13 10:15:36;;;;;;;2.30;1.93;;;14.60;72.50;;;13.85;61.19;98145.28;5087796;28;20461;-71
2023/05/13 10:18:04;;;;;;;2.63;2.43;;;14.30;73.20;;;13.83;61.76;98152.84;5063905;28;20454;-71
2023/05/13 10:20:32;;;;;;;2.23;2.07;;;14.20;73.90;;;13.93;61.21;98152.25;5075568;28;20530;-70
2023/05/13 10:23:00;;;;;;;2.20;2.10;;;14.10;73.80;;;14.03;61.23;98147.09;5080375;28;20458;-70
2023/05/13 10:25:29;;;;;;;2.40;2.20;;;14.20;74.20;;;14.15;60.41;98151.72;5063375;28;20451;-69
2023/05/13 10:27:57;;;;;;;1.90;1.80;;;14.30;73.70;;;14.17;60.20;98155.03;5082467;28;20478;-70
2023/05/13 10:30:26;;;;;;;2.43;2.17;;;14.40;73.60;;;14.25;60.50;98157.38;5080472;28;20478;-69